Time;durP1;ratioP1;P1;durP2;ratioP2;P2;SDS_P1;SDS_P2;PMS_P1;PMS_P2;Temp;Humidity;BMP_temperature;BMP_pressure;BME280_temperature;BME280_humidity;BME280_pressure;Samples;Min_cycle;Max_cycle;Signal;HPM_P1;HPM_P2
2023/07/20 00:01:59;;;;;;;8.70;2.40;;;13.60;99.90;;;;;;1934374;72;27604;-88
2023/07/20 00:04:47;;;;;;;7.90;2.80;;;13.60;99.90;;;;;;1904231;73;25244;-87
2023/07/20 00:07:36;;;;;;;16.13;3.00;;;13.60;99.90;;;;;;1903612;73;25277;-87
2023/07/20 00:10:25;;;;;;;10.97;2.60;;;13.60;99.90;;;;;;1914283;73;25198;-87
2023/07/20 00:13:15;;;;;;;10.97;2.50;;;13.70;99.90;;;;;;1902666;73;25204;-89
2023/07/20 00:16:05;;;;;;;8.57;2.30;;;13.70;99.90;;;;;;1892532;73;25271;-88
2023/07/20 00:18:54;;;;;;;7.60;2.30;;;13.70;99.90;;;;;;1904360;73;25676;-87
2023/07/20 00:21:42;;;;;;;6.77;2.20;;;13.70;99.90;;;;;;1900092;73;25438;-88
2023/07/20 00:24:32;;;;;;;7.03;2.07;;;13.80;99.90;;;;;;1901282;73;25315;-89
2023/07/20 00:27:21;;;;;;;9.07;2.00;;;13.80;99.90;;;;;;1908440;73;25337;-88
2023/07/20 00:32:50;;;;;;;5.90;2.23;;;13.80;99.90;;;;;;1930457;72;28321;-87
2023/07/20 00:35:38;;;;;;;10.10;2.23;;;13.80;99.90;;;;;;1914829;73;25158;-87
2023/07/20 00:38:27;;;;;;;9.93;1.90;;;13.80;99.90;;;;;;1877306;76;25740;-88
2023/07/20 00:43:57;;;;;;;6.53;2.17;;;13.80;99.90;;;;;;1928121;72;27051;-87
2023/07/20 00:46:46;;;;;;;6.90;2.20;;;13.80;99.90;;;;;;1910715;75;25194;-89
2023/07/20 00:49:35;;;;;;;12.40;2.43;;;13.80;99.90;;;;;;1903594;75;25289;-89
2023/07/20 00:52:25;;;;;;;9.17;2.33;;;13.70;99.90;;;;;;1894792;75;25281;-89
2023/07/20 00:55:14;;;;;;;8.23;2.30;;;13.70;99.90;;;;;;1888417;75;25270;-89
2023/07/20 00:58:03;;;;;;;7.60;2.10;;;13.70;99.90;;;;;;1896306;75;25246;-89
2023/07/20 01:00:51;;;;;;;10.57;2.30;;;13.60;99.90;;;;;;1899868;75;25849;-89
2023/07/20 01:06:28;;;;;;;8.10;2.33;;;13.40;99.90;;;;;;1948433;72;28395;-87
2023/07/20 01:12:01;;;;;;;8.80;2.00;;;13.40;99.90;;;;;;1936220;72;27749;-88
2023/07/20 01:14:50;;;;;;;5.90;1.80;;;13.40;99.90;;;;;;1885752;75;25226;-88
2023/07/20 01:17:39;;;;;;;6.17;1.83;;;13.30;99.90;;;;;;1893259;73;25162;-88
2023/07/20 01:20:29;;;;;;;10.43;2.10;;;13.30;99.90;;;;;;1907945;75;25248;-88
2023/07/20 01:23:32;;;;;;;5.17;2.10;;;13.40;99.90;;;;;;1887483;75;25273;-88
2023/07/20 01:26:31;;;;;;;6.77;2.27;;;13.30;99.90;;;;;;1909058;73;25207;-88
2023/07/20 01:29:35;;;;;;;7.10;2.17;;;13.30;99.90;;;;;;1893282;75;26459;-88
2023/07/20 01:32:26;;;;;;;6.60;2.20;;;13.40;99.90;;;;;;1899320;74;25258;-88
2023/07/20 01:35:17;;;;;;;7.07;2.03;;;13.40;99.90;;;;;;1909856;75;25652;-88
2023/07/20 01:38:07;;;;;;;6.13;1.73;;;13.40;99.90;;;;;;1910898;75;26549;-88
2023/07/20 01:40:55;;;;;;;7.47;1.83;;;13.30;99.90;;;;;;1896915;74;25738;-88
2023/07/20 01:43:44;;;;;;;5.60;2.27;;;13.30;99.90;;;;;;1882805;75;25223;-88
2023/07/20 01:46:33;;;;;;;11.77;2.30;;;13.30;99.90;;;;;;1903292;74;25249;-88
2023/07/20 01:49:22;;;;;;;7.83;2.00;;;13.30;99.90;;;;;;1906105;75;25626;-88
2023/07/20 01:52:10;;;;;;;7.33;2.00;;;13.30;99.90;;;;;;1880510;75;25793;-88
2023/07/20 01:54:59;;;;;;;8.70;1.80;;;13.20;99.90;;;;;;1902259;75;25158;-87
2023/07/20 01:57:47;;;;;;;4.33;2.03;;;13.20;99.90;;;;;;1895451;75;25222;-88
2023/07/20 02:03:15;;;;;;;10.60;2.03;;;13.20;99.90;;;;;;1918501;72;27677;-87
2023/07/20 02:06:04;;;;;;;7.00;1.90;;;13.20;99.90;;;;;;1906789;73;25256;-87
2023/07/20 02:11:34;;;;;;;5.67;1.80;;;13.20;99.90;;;;;;1942597;72;27044;-86
2023/07/20 02:14:23;;;;;;;6.70;2.00;;;13.20;99.90;;;;;;1922608;73;25563;-88
2023/07/20 02:17:11;;;;;;;7.33;1.90;;;13.10;99.90;;;;;;1917679;73;25231;-89
2023/07/20 02:20:00;;;;;;;4.50;2.40;;;13.20;99.90;;;;;;1889785;75;25243;-89
2023/07/20 02:22:49;;;;;;;2.97;1.73;;;13.10;99.90;;;;;;1846692;76;25748;-89
2023/07/20 02:25:37;;;;;;;7.50;2.07;;;13.10;99.90;;;;;;1924407;73;25242;-89
2023/07/20 02:28:26;;;;;;;4.87;1.70;;;13.10;99.90;;;;;;1931733;73;25302;-89
2023/07/20 02:33:57;;;;;;;13.17;2.07;;;13.10;99.90;;;;;;1931062;72;27165;-87
2023/07/20 02:39:30;;;;;;;10.40;2.00;;;12.90;99.90;;;;;;1932934;72;27009;-87
2023/07/20 02:42:22;;;;;;;7.27;2.20;;;13.00;99.90;;;;;;1891140;75;26159;-87
2023/07/20 02:45:11;;;;;;;5.50;1.50;;;13.00;99.90;;;;;;1854402;76;25600;-87
2023/07/20 02:50:41;;;;;;;7.73;1.73;;;12.90;99.90;;;;;;1943965;72;27454;-87
2023/07/20 02:53:30;;;;;;;4.60;1.60;;;12.90;99.90;;;;;;1922614;73;25292;-87
2023/07/20 02:56:18;;;;;;;3.80;1.60;;;12.90;99.90;;;;;;1929471;73;25208;-87
2023/07/20 02:59:07;;;;;;;2.23;1.47;;;12.90;99.90;;;;;;1879111;75;25274;-87
2023/07/20 03:01:57;;;;;;;5.03;1.67;;;13.00;99.90;;;;;;1864323;76;25922;-87
2023/07/20 03:04:46;;;;;;;3.17;1.67;;;13.00;99.90;;;;;;1890674;75;25262;-87
2023/07/20 03:07:34;;;;;;;3.97;1.40;;;13.00;99.90;;;;;;1895886;75;25184;-87
2023/07/20 03:10:22;;;;;;;4.87;1.50;;;13.10;99.90;;;;;;1901622;75;25231;-87
2023/07/20 03:13:12;;;;;;;4.03;1.50;;;13.10;99.90;;;;;;1899842;75;25310;-87
2023/07/20 03:16:01;;;;;;;4.27;1.40;;;13.10;99.90;;;;;;1894424;75;25280;-87
2023/07/20 03:18:50;;;;;;;4.83;1.40;;;13.10;99.90;;;;;;1881960;74;25620;-87
2023/07/20 03:24:18;;;;;;;5.17;1.30;;;13.10;99.90;;;;;;1909656;73;27113;-87
2023/07/20 03:27:08;;;;;;;3.10;1.37;;;13.20;99.90;;;;;;1906739;75;25208;-87
2023/07/20 03:29:56;;;;;;;4.27;1.30;;;13.30;99.90;;;;;;1914049;75;25262;-87
2023/07/20 03:32:45;;;;;;;5.53;1.37;;;13.40;99.90;;;;;;1911546;75;25242;-87
2023/07/20 03:35:34;;;;;;;2.40;1.37;;;13.40;99.90;;;;;;1903540;74;25718;-87
2023/07/20 03:38:22;;;;;;;4.67;1.40;;;13.40;99.90;;;;;;1912004;74;25201;-87
2023/07/20 03:41:11;;;;;;;3.43;1.50;;;13.40;99.90;;;;;;1906872;75;25378;-87
2023/07/20 03:44:00;;;;;;;2.47;1.30;;;13.50;99.90;;;;;;1873231;75;25295;-85
2023/07/20 03:49:29;;;;;;;2.87;1.37;;;13.70;99.90;;;;;;1948848;72;27067;-87
2023/07/20 03:52:18;;;;;;;4.20;1.60;;;14.10;99.90;;;;;;1923116;73;25239;-87
2023/07/20 03:57:47;;;;;;;2.57;1.40;;;14.40;99.90;;;;;;1947608;73;27054;-87
2023/07/20 04:00:35;;;;;;;1.73;1.10;;;14.40;99.90;;;;;;1879040;76;25752;-87
2023/07/20 04:03:26;;;;;;;2.83;1.10;;;14.20;99.90;;;;;;1909937;74;25213;-87
2023/07/20 04:06:16;;;;;;;3.13;1.30;;;14.30;99.90;;;;;;1934544;73;25290;-87
2023/07/20 04:09:06;;;;;;;2.27;1.30;;;14.30;99.90;;;;;;1913806;74;25741;-87
2023/07/20 04:11:55;;;;;;;2.83;1.10;;;14.20;99.90;;;;;;1903858;74;25816;-87
2023/07/20 04:14:43;;;;;;;2.10;1.20;;;14.20;99.90;;;;;;1911358;74;25601;-87
2023/07/20 04:17:32;;;;;;;3.90;1.70;;;14.30;99.90;;;;;;1869580;74;25259;-87
2023/07/20 04:20:21;;;;;;;4.20;1.30;;;14.50;99.90;;;;;;1908127;74;25888;-87
2023/07/20 04:23:09;;;;;;;2.87;1.17;;;14.60;99.90;;;;;;1916400;73;25215;-88
2023/07/20 04:25:58;;;;;;;2.70;1.43;;;14.90;99.90;;;;;;1900467;74;25281;-87
2023/07/20 04:28:47;;;;;;;3.70;1.30;;;14.80;99.90;;;;;;1917398;74;25232;-88
2023/07/20 04:31:36;;;;;;;2.27;1.20;;;14.80;99.90;;;;;;1912949;74;25199;-88
2023/07/20 04:37:05;;;;;;;2.07;1.10;;;14.50;99.90;;;;;;1945823;72;27092;-87
2023/07/20 04:42:37;;;;;;;1.20;1.10;;;14.70;99.90;;;;;;1956804;72;27024;-87
2023/07/20 04:45:25;;;;;;;2.50;1.00;;;14.90;99.90;;;;;;1906443;74;25257;-87
2023/07/20 04:48:16;;;;;;;7.83;3.30;;;15.10;99.90;;;;;;1915306;75;25223;-87
2023/07/20 04:51:05;;;;;;;7.10;3.97;;;15.00;99.90;;;;;;1863047;76;25286;-88
2023/07/20 04:53:54;;;;;;;6.27;2.93;;;15.10;99.90;;;;;;1912448;74;25248;-88
2023/07/20 04:59:28;;;;;;;3.57;1.87;;;16.10;99.90;;;;;;1929242;72;26993;-88
2023/07/20 05:02:17;;;;;;;1.40;1.30;;;16.40;99.90;;;;;;1874152;76;25276;-88
2023/07/20 05:05:07;;;;;;;1.40;1.20;;;16.70;99.90;;;;;;1869672;75;25341;-88
2023/07/20 05:07:55;;;;;;;1.37;1.10;;;17.20;99.90;;;;;;1913748;73;25232;-88
2023/07/20 05:10:44;;;;;;;6.77;3.60;;;17.10;99.90;;;;;;1871772;75;25219;-88
2023/07/20 05:13:33;;;;;;;3.53;2.10;;;17.20;99.90;;;;;;1875175;75;25862;-88
2023/07/20 05:16:21;;;;;;;1.67;1.50;;;17.40;99.90;;;;;;1866945;75;25332;-88
2023/07/20 05:21:54;;;;;;;3.60;1.20;;;17.40;99.90;;;;;;1928870;72;27492;-88
2023/07/20 05:24:43;;;;;;;1.93;1.33;;;17.60;99.90;;;;;;1898097;75;25248;-88
2023/07/20 05:27:31;;;;;;;1.10;1.00;;;17.60;99.90;;;;;;1891705;75;25852;-88
2023/07/20 05:30:20;;;;;;;1.07;0.97;;;17.50;99.90;;;;;;1896455;75;25297;-88
2023/07/20 05:33:09;;;;;;;2.43;0.90;;;17.50;99.90;;;;;;1889885;75;25778;-88
2023/07/20 05:38:46;;;;;;;1.20;1.10;;;17.50;99.90;;;;;;1925702;72;26969;-88
2023/07/20 05:41:34;;;;;;;1.30;1.20;;;17.40;99.90;;;;;;1905482;75;25833;-88
2023/07/20 05:44:23;;;;;;;1.77;1.00;;;17.40;99.90;;;;;;1834537;77;25748;-87
2023/07/20 05:47:11;;;;;;;2.40;1.20;;;17.50;99.90;;;;;;1837608;78;25257;-88
2023/07/20 05:50:00;;;;;;;2.70;1.00;;;17.60;99.90;;;;;;1839502;77;25759;-88
2023/07/20 05:55:35;;;;;;;4.33;1.13;;;17.80;99.90;;;;;;1932852;72;27085;-88
2023/07/20 06:01:05;;;;;;;2.50;1.20;;;17.60;99.90;;;;;;1967148;72;26905;-88
2023/07/20 06:03:54;;;;;;;2.43;1.10;;;17.60;99.90;;;;;;1915129;73;25226;-87
2023/07/20 06:06:43;;;;;;;2.20;1.00;;;17.50;99.90;;;;;;1929194;72;25280;-88
2023/07/20 06:09:32;;;;;;;3.10;1.10;;;17.50;99.90;;;;;;1931625;73;25655;-87
2023/07/20 06:12:21;;;;;;;0.90;0.90;;;17.50;99.90;;;;;;1931432;73;25166;-87
2023/07/20 06:15:26;;;;;;;2.97;0.97;;;17.70;99.90;;;;;;1914313;73;25274;-88
2023/07/20 06:18:15;;;;;;;1.10;1.10;;;17.60;99.90;;;;;;1915988;73;25219;-87
2023/07/20 06:21:04;;;;;;;2.50;1.23;;;17.80;99.90;;;;;;1926481;73;25746;-88
2023/07/20 06:23:53;;;;;;;1.03;0.93;;;17.80;99.90;;;;;;1895735;75;25231;-88
2023/07/20 06:26:41;;;;;;;1.97;1.00;;;17.70;99.90;;;;;;1864921;75;25219;-88
2023/07/20 06:29:29;;;;;;;1.00;1.00;;;17.60;99.90;;;;;;1882456;75;25200;-88
2023/07/20 06:32:18;;;;;;;2.33;1.00;;;17.60;99.90;;;;;;1889558;75;25230;-88
2023/07/20 06:35:08;;;;;;;1.53;1.00;;;17.90;99.90;;;;;;1898737;75;25277;-88
2023/07/20 06:37:59;;;;;;;2.07;0.90;;;18.10;99.90;;;;;;1893809;75;25914;-88
2023/07/20 06:40:49;;;;;;;1.43;1.00;;;18.40;99.90;;;;;;1881849;75;25870;-88
2023/07/20 06:43:38;;;;;;;1.57;1.00;;;18.20;99.90;;;;;;1862677;76;25212;-88
2023/07/20 06:49:09;;;;;;;3.07;1.10;;;17.90;99.90;;;;;;1944616;72;27002;-88
2023/07/20 06:51:58;;;;;;;1.07;0.97;;;17.80;99.90;;;;;;1916282;73;25229;-88
2023/07/20 06:54:47;;;;;;;1.17;1.03;;;17.30;99.90;;;;;;1917060;73;25478;-88
2023/07/20 06:57:36;;;;;;;2.37;0.90;;;17.60;99.90;;;;;;1917329;75;25237;-88
2023/07/20 07:00:25;;;;;;;1.37;0.90;;;17.80;99.90;;;;;;1925165;73;25316;-87
2023/07/20 07:03:14;;;;;;;4.37;1.10;;;18.00;99.90;;;;;;1931304;73;25167;-88
2023/07/20 07:06:03;;;;;;;1.07;0.97;;;17.90;99.90;;;;;;1925988;73;25175;-88
2023/07/20 07:08:51;;;;;;;3.23;1.10;;;17.80;99.90;;;;;;1933073;73;25173;-89
2023/07/20 07:14:22;;;;;;;1.60;1.17;;;17.80;99.90;;;;;;1934224;72;27058;-88
2023/07/20 07:17:11;;;;;;;2.27;0.80;;;18.00;99.90;;;;;;1904747;74;25350;-88
2023/07/20 07:20:00;;;;;;;1.10;0.97;;;17.80;99.90;;;;;;1912112;75;25239;-88
2023/07/20 07:25:28;;;;;;;0.80;0.80;;;18.00;99.90;;;;;;1936586;72;27054;-88
2023/07/20 07:30:58;;;;;;;0.80;0.80;;;17.60;99.90;;;;;;1931689;72;26968;-88
2023/07/20 07:33:46;;;;;;;0.97;0.77;;;17.60;99.90;;;;;;1890947;75;25709;-88
2023/07/20 07:39:15;;;;;;;1.43;0.80;;;17.60;99.90;;;;;;1929360;72;27046;-88
2023/07/20 07:42:04;;;;;;;0.90;0.90;;;17.70;99.90;;;;;;1900937;73;25187;-87
2023/07/20 07:44:53;;;;;;;0.93;0.90;;;17.80;99.90;;;;;;1893774;75;25242;-88
2023/07/20 07:47:42;;;;;;;0.97;0.90;;;17.70;99.90;;;;;;1890249;75;25220;-88
2023/07/20 07:53:10;;;;;;;0.87;0.87;;;17.90;99.90;;;;;;1937816;72;27035;-88
2023/07/20 07:55:58;;;;;;;0.90;0.90;;;18.00;99.90;;;;;;1895799;75;25860;-89
2023/07/20 08:01:27;;;;;;;0.90;0.90;;;18.10;99.90;;;;;;1933698;72;27565;-88
2023/07/20 08:04:15;;;;;;;1.80;0.90;;;18.20;99.90;;;;;;1891876;75;25263;-88
2023/07/20 08:07:07;;;;;;;1.00;1.00;;;18.40;99.90;;;;;;1902915;75;25334;-88
2023/07/20 08:09:56;;;;;;;0.80;0.80;;;18.50;99.90;;;;;;1905611;75;25215;-88
2023/07/20 08:12:44;;;;;;;1.03;0.90;;;18.50;99.90;;;;;;1887006;75;25849;-88
2023/07/20 08:15:33;;;;;;;0.87;0.80;;;18.80;99.90;;;;;;1897098;75;25598;-88
2023/07/20 08:18:22;;;;;;;2.93;0.87;;;18.70;99.90;;;;;;1897393;73;25180;-88
2023/07/20 08:23:51;;;;;;;0.80;0.80;;;19.30;99.90;;;;;;1923945;72;27135;-87
2023/07/20 08:26:40;;;;;;;0.93;0.80;;;19.10;99.90;;;;;;1899172;74;25707;-87
2023/07/20 08:29:28;;;;;;;0.93;0.83;;;19.00;99.90;;;;;;1902328;74;25303;-88
2023/07/20 08:34:55;;;;;;;2.93;1.00;;;19.10;99.90;;;;;;1932985;72;27031;-88
2023/07/20 08:37:44;;;;;;;0.80;0.80;;;19.30;99.90;;;;;;1911535;75;25212;-87
2023/07/20 08:43:16;;;;;;;1.37;0.80;;;19.50;99.90;;;;;;1938095;72;27047;-87
2023/07/20 08:46:06;;;;;;;0.87;0.87;;;19.70;99.90;;;;;;1883344;75;25392;-88
2023/07/20 08:48:56;;;;;;;1.30;0.67;;;19.70;99.90;;;;;;1897221;75;25244;-88
2023/07/20 08:51:46;;;;;;;4.20;0.87;;;19.60;99.90;;;;;;1889768;75;25303;-88
2023/07/20 08:54:36;;;;;;;2.07;0.70;;;19.90;99.90;;;;;;1889149;74;25766;-88
2023/07/20 08:57:26;;;;;;;0.70;0.70;;;19.80;99.90;;;;;;1891537;74;25290;-88
2023/07/20 09:00:17;;;;;;;0.70;0.70;;;20.10;99.90;;;;;;1899531;74;25816;-88
2023/07/20 09:03:06;;;;;;;0.70;0.70;;;19.70;99.90;;;;;;1888891;74;25230;-88
2023/07/20 09:05:56;;;;;;;0.63;0.63;;;19.30;99.90;;;;;;1893138;75;25280;-88
2023/07/20 09:08:45;;;;;;;0.87;0.70;;;19.50;99.90;;;;;;1889540;75;25271;-88
2023/07/20 09:11:33;;;;;;;0.77;0.60;;;19.60;99.90;;;;;;1881389;75;25801;-88
2023/07/20 09:14:23;;;;;;;0.70;0.70;;;19.60;99.90;;;;;;1892764;74;25327;-88
2023/07/20 09:17:19;;;;;;;0.93;0.83;;;19.50;99.90;;;;;;1890296;74;25250;-88
2023/07/20 09:22:54;;;;;;;0.83;0.80;;;19.70;99.90;;;;;;1946066;72;27074;-87
2023/07/20 09:29:07;;;;;;;0.67;0.67;;;19.40;99.90;;;;;;1957629;71;26812;-87
2023/07/20 09:46:01;;;;;;;0.67;0.67;;;20.00;99.90;;;;;;1930340;73;27542;-89
2023/07/20 09:52:48;;;;;;;0.70;0.70;;;20.50;99.90;;;;;;2000750;70;26684;-89
2023/07/20 09:55:37;;;;;;;0.60;0.57;;;20.80;99.90;;;;;;2024025;69;25209;-89
2023/07/20 09:58:28;;;;;;;0.67;0.67;;;20.60;99.90;;;;;;2016892;70;25291;-89
2023/07/20 10:01:21;;;;;;;0.50;0.50;;;20.40;99.90;;;;;;1977137;70;25173;-89
2023/07/20 10:04:12;;;;;;;1.33;0.70;;;20.50;99.90;;;;;;1988473;70;25221;-89
2023/07/20 10:09:49;;;;;;;4.90;0.80;;;20.50;99.90;;;;;;1943588;72;26569;-89
2023/07/20 10:12:38;;;;;;;0.60;0.60;;;20.60;99.90;;;;;;1919582;73;25352;-89
2023/07/20 10:15:29;;;;;;;0.57;0.57;;;20.60;99.90;;;;;;1920638;73;25246;-89
2023/07/20 10:18:24;;;;;;;1.33;0.50;;;20.30;99.90;;;;;;1921129;72;25186;-89
2023/07/20 10:21:14;;;;;;;0.70;0.70;;;20.30;99.90;;;;;;1921704;72;25725;-89
2023/07/20 10:24:03;;;;;;;0.60;0.60;;;20.40;99.90;;;;;;1926086;73;25254;-89
2023/07/20 10:26:52;;;;;;;1.90;0.67;;;20.50;99.90;;;;;;1936831;72;25248;-89
2023/07/20 10:29:43;;;;;;;0.50;0.50;;;20.60;99.90;;;;;;1927973;72;25273;-89
2023/07/20 10:32:32;;;;;;;0.70;0.70;;;20.50;99.90;;;;;;1932204;72;25234;-89
2023/07/20 10:35:21;;;;;;;0.73;0.67;;;20.40;99.90;;;;;;1927786;73;25263;-89
2023/07/20 10:38:10;;;;;;;0.60;0.60;;;20.70;99.90;;;;;;1931353;72;25273;-89
2023/07/20 10:44:48;;;;;;;0.60;0.60;;;20.70;99.90;;;;;;1989286;71;26862;-89
2023/07/20 10:47:47;;;;;;;0.53;0.53;;;20.40;99.90;;;;;;2028812;70;25228;-89
2023/07/20 10:50:36;;;;;;;2.10;0.60;;;20.60;99.90;;;;;;2021411;70;25195;-89
2023/07/20 10:53:25;;;;;;;0.60;0.60;;;20.60;99.90;;;;;;2007808;70;25219;-90
2023/07/20 10:56:16;;;;;;;0.70;0.70;;;20.60;99.90;;;;;;2016204;70;25199;-89
2023/07/20 11:01:50;;;;;;;1.37;0.50;;;20.00;99.90;;;;;;1945976;72;26993;-89
2023/07/20 11:04:44;;;;;;;1.70;0.70;;;19.60;99.90;;;;;;1936302;73;25293;-89
2023/07/20 11:07:40;;;;;;;0.50;0.50;;;19.70;99.90;;;;;;1935622;73;25161;-90
2023/07/20 11:10:29;;;;;;;0.60;0.60;;;20.30;99.90;;;;;;1934393;72;25209;-90
2023/07/20 11:13:23;;;;;;;0.70;0.70;;;20.50;99.90;;;;;;1931968;73;25239;-89
2023/07/20 11:16:12;;;;;;;0.60;0.60;;;21.00;99.90;;;;;;1929973;73;25180;-90
2023/07/20 11:19:01;;;;;;;0.50;0.50;;;21.20;99.90;;;;;;1922612;73;25297;-90
2023/07/20 11:21:52;;;;;;;1.90;0.50;;;21.30;99.90;;;;;;1940314;73;25231;-90
2023/07/20 11:24:42;;;;;;;0.50;0.50;;;21.10;99.90;;;;;;1934639;73;25758;-90
2023/07/20 11:27:31;;;;;;;0.50;0.50;;;21.20;99.90;;;;;;1937726;73;25704;-90
2023/07/20 11:30:20;;;;;;;0.60;0.60;;;20.90;99.90;;;;;;1929003;73;25756;-90
2023/07/20 11:33:10;;;;;;;0.70;0.70;;;20.70;99.90;;;;;;1934998;73;25248;-90
2023/07/20 11:38:52;;;;;;;1.93;0.70;;;20.70;99.90;;;;;;1960051;72;28249;-90
2023/07/20 11:44:43;;;;;;;0.60;0.60;;;21.00;99.90;;;;;;1943552;72;27541;-90
2023/07/20 12:01:29;;;;;;;1.07;0.70;;;19.70;99.90;;;;;;1870625;75;27193;-90
2023/07/20 12:04:19;;;;;;;0.60;0.60;;;20.30;99.90;;;;;;1828927;76;25208;-89
2023/07/20 12:07:10;;;;;;;0.53;0.53;;;20.50;99.90;;;;;;1806443;77;25895;-90
2023/07/20 12:26:49;;;;;;;0.60;0.60;;;20.60;99.90;;;;;;1964638;72;26947;-90
2023/07/20 12:32:21;;;;;;;0.60;0.60;;;20.60;99.90;;;;;;1955150;72;27600;-90
2023/07/20 12:35:12;;;;;;;0.73;0.60;;;20.60;99.90;;;;;;1920449;73;26614;-90
2023/07/20 12:38:01;;;;;;;0.50;0.50;;;20.70;99.90;;;;;;1880913;75;25373;-89
2023/07/20 12:40:50;;;;;;;0.60;0.60;;;20.60;99.90;;;;;;1876866;75;25313;-90
2023/07/20 13:01:53;;;;;;;2.13;0.50;;;20.60;99.90;;;;;;2013857;70;26781;-90
2023/07/20 13:08:32;;;;;;;0.60;0.60;;;20.70;99.90;;;;;;1985253;71;26352;-90
2023/07/20 13:15:42;;;;;;;1.17;0.50;;;20.70;99.90;;;;;;1992244;71;27480;-90
2023/07/20 13:18:31;;;;;;;0.70;0.70;;;20.80;99.90;;;;;;1970362;73;25295;-90
2023/07/20 13:21:22;;;;;;;0.40;0.40;;;20.70;99.90;;;;;;1967930;72;25225;-90
2023/07/20 13:53:39;;;;;;;0.40;0.40;;;21.30;99.90;;;;;;1867410;75;27816;-90
2023/07/20 13:56:30;;;;;;;0.30;0.30;;;21.00;99.90;;;;;;1779949;79;25343;-90
2023/07/20 13:59:19;;;;;;;1.23;0.50;;;21.00;99.90;;;;;;1784276;79;25330;-91
2023/07/20 14:02:10;;;;;;;0.50;0.50;;;21.30;99.90;;;;;;1783877;79;25687;-90
2023/07/20 14:04:59;;;;;;;0.30;0.30;;;21.40;99.90;;;;;;1782085;79;25260;-90
2023/07/20 14:07:49;;;;;;;0.50;0.50;;;21.40;99.90;;;;;;1791195;79;25242;-90
2023/07/20 14:10:39;;;;;;;0.50;0.50;;;21.50;99.90;;;;;;1793166;79;25207;-90
2023/07/20 14:13:29;;;;;;;0.40;0.40;;;21.60;99.90;;;;;;1788749;78;25283;-90
2023/07/20 14:16:17;;;;;;;2.90;0.60;;;21.40;99.90;;;;;;1798593;79;25212;-90
2023/07/20 14:19:07;;;;;;;1.37;0.47;;;21.20;99.90;;;;;;1786863;78;25261;-90
2023/07/20 14:21:55;;;;;;;0.40;0.40;;;21.10;99.90;;;;;;1785635;79;26011;-90
2023/07/20 14:24:45;;;;;;;0.43;0.43;;;21.10;99.90;;;;;;1794601;79;25796;-90
2023/07/20 14:27:35;;;;;;;0.40;0.40;;;20.80;99.90;;;;;;1789244;79;25316;-89
2023/07/20 14:30:24;;;;;;;0.57;0.57;;;20.70;99.90;;;;;;1794220;79;25287;-90
2023/07/20 14:33:14;;;;;;;0.50;0.50;;;20.70;99.90;;;;;;1802142;79;25194;-90
2023/07/20 14:36:02;;;;;;;0.43;0.43;;;21.10;99.90;;;;;;1783648;79;25671;-90
2023/07/20 14:38:52;;;;;;;0.77;0.60;;;21.60;99.90;;;;;;1785477;79;25206;-90
2023/07/20 14:45:31;;;;;;;0.77;0.50;;;21.80;99.90;;;;;;2022608;69;27354;-90
2023/07/20 14:51:13;;;;;;;0.43;0.40;;;22.10;99.90;;;;;;1949127;72;26683;-90
2023/07/20 14:54:01;;;;;;;0.60;0.40;;;22.20;99.90;;;;;;1921270;73;25271;-90
2023/07/20 14:56:56;;;;;;;0.40;0.40;;;21.80;99.90;;;;;;1936211;72;25701;-90
2023/07/20 15:05:18;;;;;;;0.50;0.50;;;21.50;99.90;;;;;;1948336;72;26980;-90
2023/07/20 15:08:11;;;;;;;1.90;0.33;;;21.30;99.90;;;;;;1928553;73;25342;-90
2023/07/20 15:11:02;;;;;;;0.40;0.40;;;21.20;99.90;;;;;;1919545;74;25267;-91
2023/07/20 15:14:13;;;;;;;0.50;0.50;;;20.80;99.90;;;;;;1919563;72;25282;-91
2023/07/20 15:17:27;;;;;;;0.60;0.60;;;20.60;99.90;;;;;;1925079;72;25258;-91
2023/07/20 15:20:18;;;;;;;0.40;0.40;;;20.40;99.90;;;;;;1930925;74;25221;-91
2023/07/20 15:23:08;;;;;;;0.63;0.53;;;20.50;99.90;;;;;;1903317;74;25748;-91
2023/07/20 15:26:01;;;;;;;0.40;0.40;;;20.70;99.90;;;;;;1924802;72;25270;-91
2023/07/20 15:28:51;;;;;;;1.07;0.50;;;20.90;99.90;;;;;;1929302;72;25314;-91
2023/07/20 15:31:50;;;;;;;0.50;0.50;;;20.60;99.90;;;;;;1942429;73;25163;-91
2023/07/20 15:34:51;;;;;;;0.30;0.30;;;20.30;99.90;;;;;;1909790;74;25352;-91
2023/07/20 15:37:55;;;;;;;0.80;0.30;;;20.40;99.90;;;;;;1916397;73;25315;-91
2023/07/20 15:40:56;;;;;;;0.40;0.40;;;20.40;99.90;;;;;;1926881;74;25273;-91
2023/07/20 15:43:52;;;;;;;0.30;0.30;;;20.30;99.90;;;;;;1918215;74;25860;-91
2023/07/20 15:46:49;;;;;;;0.40;0.40;;;20.10;99.90;;;;;;1921227;74;25338;-91
2023/07/20 15:49:39;;;;;;;0.40;0.40;;;20.00;99.90;;;;;;1903975;74;25234;-91
2023/07/20 15:52:34;;;;;;;0.50;0.50;;;19.90;99.90;;;;;;1905474;74;25409;-91
2023/07/20 17:03:59;;;;;;;0.40;0.40;;;20.00;99.90;;;;;;1949340;72;28179;-90
2023/07/20 17:07:33;;;;;;;0.50;0.50;;;20.20;99.90;;;;;;1923201;73;25203;-91
2023/07/20 17:24:58;;;;;;;0.33;0.33;;;20.60;99.90;;;;;;1924750;73;27079;-90
2023/07/20 17:31:10;;;;;;;2.13;0.80;;;20.70;99.90;;;;;;1944185;72;27616;-91
2023/07/20 17:37:16;;;;;;;0.80;0.80;;;20.40;99.90;;;;;;1944887;72;26586;-90
2023/07/20 17:43:51;;;;;;;0.60;0.60;;;19.80;99.90;;;;;;1943539;72;30143;-91
2023/07/20 17:46:45;;;;;;;0.60;0.60;;;19.00;99.90;;;;;;1913838;73;25631;-91
2023/07/20 17:49:40;;;;;;;0.97;0.60;;;18.60;99.90;;;;;;1896010;73;25781;-91
2023/07/20 17:52:32;;;;;;;0.60;0.60;;;18.50;99.90;;;;;;1900799;73;25179;-91
2023/07/20 17:55:25;;;;;;;0.60;0.60;;;18.50;99.90;;;;;;1920749;73;25246;-91
2023/07/20 17:58:16;;;;;;;0.60;0.60;;;18.20;99.90;;;;;;1880811;75;25244;-91
2023/07/20 18:01:22;;;;;;;0.60;0.60;;;18.00;99.90;;;;;;1938161;73;25281;-91
2023/07/20 18:04:10;;;;;;;0.60;0.60;;;17.80;99.90;;;;;;1930170;73;25265;-91
2023/07/20 18:07:00;;;;;;;0.60;0.60;;;17.70;99.90;;;;;;1916759;73;25823;-91
2023/07/20 18:09:52;;;;;;;0.70;0.70;;;17.40;99.90;;;;;;1905469;73;25142;-90
2023/07/20 18:12:41;;;;;;;0.60;0.60;;;17.10;99.90;;;;;;1922280;73;25232;-91
2023/07/20 18:18:50;;;;;;;4.10;0.70;;;16.70;99.90;;;;;;2051152;68;26306;-90
2023/07/20 18:21:40;;;;;;;0.70;0.60;;;16.30;99.90;;;;;;2032758;70;25257;-90
2023/07/20 18:24:30;;;;;;;5.47;0.83;;;16.10;99.90;;;;;;2041671;70;25677;-90
2023/07/20 18:27:51;;;;;;;1.07;0.50;;;15.80;99.90;;;;;;2049192;70;25191;-90
2023/07/20 18:31:24;;;;;;;0.97;0.80;;;15.50;99.90;;;;;;2043350;70;25656;-90
2023/07/20 19:54:20;;;;;;;0.70;0.70;;;15.20;99.90;;;;;;1901897;73;26471;-91
2023/07/20 20:27:52;;;;;;;1.03;0.80;;;14.40;99.90;;;;;;1855889;76;25410;-91
2023/07/20 21:25:04;;;;;;;0.83;0.83;;;13.40;99.90;;;;;;1784182;78;25289;-92
